Long, Mississippi
Current Conditions -  °F | °C
As of 4:53 AM on Monday 20 Oct 2014 (Local Time) from KGLH Reporting Station
Haze Haze  
Wind Chill: 47°   Ceiling: 200
Heat Index: 47°   Visibility: 0.75mi
Dew Point: 46°   Wind: 0mph
Humidity: 97%   Direction: NA
Pressure: 30.06"   Gusts: NA
Location:  33.4469°N, 90.8665°W
Report Text: KGLH 200953Z AUTO 00000KT 3/4SM BR VV002 08/08 A3006 RMK AO2 SLP188 T00830078
Loading
Personal Weather Stations






























Interactive Weather Map
Tropical Storm Tracking
New forecast layout! Learn more

10-Day Weather Forecast

Advertisements
Track Severe Weather on mobile